LZIB/BTS METAR and TAF weather

Enter ICAO airport designator
Station Type Date Time Source
LZIB METAR 2021/03/08 01:00 UTC NOAA

LZIB 080100Z 24003KT CAVOK M01/M07 Q1017


Station Type Date Time Source
LZIB Decoded METAR 2021/03/08 01:00 UTC NOAA

Bratislava Ivanka, Slovakia (LZIB) 48-12N 017-12E 142M
Mar 07, 2021 - 08:00 PM EST / 2021.03.08 0100 UTC
Wind: from the WSW (240 degrees) at 3 MPH (3 KT):0
Visibility: greater than 7 mile(s):0
Temperature: 30 F (-1 C)
Dew Point: 19 F (-7 C)
Relative Humidity: 63%
Pressure (altimeter): 30.03 in. Hg (1017 hPa)
ob: LZIB 080100Z 24003KT CAVOK M01/M07 Q1017
cycle: 1

Station Type Date Time Source
LZIB TAF 2021/03/07 18:50 UTC NOAA

TAF LZIB 071700Z 0718/0818 VRB02KT CAVOK
BECMG 0806/0808 31010KT
TEMPO 0809/0815 34015G25KT
BECMG 0816/0818 04010KT

Example: see airport list